Terminal Aerodrome Forecast
Issued by NWS Shreveport, LA

Home | Current Version | Previous Version | Text Only | Print | Product List | Glossary On
Versions: 1 2 3 4 5 6 7 8 9 10 11 12 13 14 15 16 17 18 19 20 21 22
000
FTUS44 KSHV 291909 AAA
TAFTYR
TAF AMD
KTYR 291909Z 2919/3018 22012G20KT P6SM BKN035
     FM300100 18005KT P6SM SCT050 OVC250
     FM300800 23005KT P6SM VCTS BKN040CB
     FM301400 32006KT P6SM BKN060=

USA.gov is the U.S. government's official web portal to all federal, state and local government web resources and services.